Rusk, Texas
Current Conditions -  °F | °C
As of 6:55 PM on Wednesday 22 Oct 2014 (Local Time) from KJSO Reporting Station
Clear Clear  
Wind Chill: 71°   Ceiling: Unl
Heat Index: 71°   Visibility: 10mi
Dew Point: 54°   Wind: 0mph
Humidity: 55%   Direction: NA
Pressure: 30.11"   Gusts: NA
Location:  31.8°N, 95.15°W
Report Text: KJSO 222355Z AUTO 00000KT 10SM CLR 21/12 A3011 RMK AO2 T02150120
Loading
Personal Weather Stations






























Interactive Weather Map
Tropical Storm Tracking
New forecast layout! Learn more

10-Day Weather Forecast

Advertisements
Track Severe Weather on mobile